sensor_id;sensor_type;location;lat;lon;timestamp;temperature;humidity
77039;DHT22;65970;50.476;4.840;2024-03-07T00:01:31;9.50;33.60
77039;DHT22;65970;50.476;4.840;2024-03-07T00:06:32;9.40;33.80
77039;DHT22;65970;50.476;4.840;2024-03-07T00:11:32;9.40;33.60
77039;DHT22;65970;50.476;4.840;2024-03-07T00:16:33;9.30;32.90
77039;DHT22;65970;50.476;4.840;2024-03-07T00:21:34;9.30;33.60
77039;DHT22;65970;50.476;4.840;2024-03-07T00:26:34;9.30;33.50
77039;DHT22;65970;50.476;4.840;2024-03-07T00:31:35;9.20;33.20
77039;DHT22;65970;50.476;4.840;2024-03-07T00:36:35;9.20;33.30
77039;DHT22;65970;50.476;4.840;2024-03-07T00:41:36;9.10;33.50
77039;DHT22;65970;50.476;4.840;2024-03-07T00:46:37;9.10;33.40
77039;DHT22;65970;50.476;4.840;2024-03-07T00:51:37;9.10;33.20
77039;DHT22;65970;50.476;4.840;2024-03-07T00:56:38;9.00;33.90
77039;DHT22;65970;50.476;4.840;2024-03-07T01:01:39;9.00;33.50
77039;DHT22;65970;50.476;4.840;2024-03-07T01:06:39;8.90;33.40
77039;DHT22;65970;50.476;4.840;2024-03-07T01:11:44;8.90;33.20
77039;DHT22;65970;50.476;4.840;2024-03-07T01:16:45;8.80;33.50
77039;DHT22;65970;50.476;4.840;2024-03-07T01:21:45;8.80;33.40
77039;DHT22;65970;50.476;4.840;2024-03-07T01:26:46;8.80;33.30
77039;DHT22;65970;50.476;4.840;2024-03-07T01:31:47;8.70;33.60
77039;DHT22;65970;50.476;4.840;2024-03-07T01:36:47;8.70;33.50
77039;DHT22;65970;50.476;4.840;2024-03-07T01:41:48;8.70;33.20
77039;DHT22;65970;50.476;4.840;2024-03-07T01:46:48;8.60;33.70
77039;DHT22;65970;50.476;4.840;2024-03-07T01:51:49;8.60;34.10
77039;DHT22;65970;50.476;4.840;2024-03-07T01:56:50;8.50;34.20
77039;DHT22;65970;50.476;4.840;2024-03-07T02:01:51;8.50;34.10
77039;DHT22;65970;50.476;4.840;2024-03-07T02:06:51;8.50;34.00
77039;DHT22;65970;50.476;4.840;2024-03-07T02:11:52;8.40;33.80
77039;DHT22;65970;50.476;4.840;2024-03-07T02:16:52;8.40;34.10
77039;DHT22;65970;50.476;4.840;2024-03-07T02:21:53;8.40;34.20
77039;DHT22;65970;50.476;4.840;2024-03-07T02:26:54;8.30;34.20
77039;DHT22;65970;50.476;4.840;2024-03-07T02:31:54;8.30;34.30
77039;DHT22;65970;50.476;4.840;2024-03-07T02:36:55;8.20;34.30
77039;DHT22;65970;50.476;4.840;2024-03-07T02:41:56;8.20;34.50
77039;DHT22;65970;50.476;4.840;2024-03-07T02:46:56;8.20;34.70
77039;DHT22;65970;50.476;4.840;2024-03-07T02:51:57;8.20;35.00
77039;DHT22;65970;50.476;4.840;2024-03-07T02:56:57;8.20;35.10
77039;DHT22;65970;50.476;4.840;2024-03-07T03:01:58;8.10;35.10
77039;DHT22;65970;50.476;4.840;2024-03-07T03:06:58;8.10;35.20
77039;DHT22;65970;50.476;4.840;2024-03-07T03:11:59;8.10;34.80
77039;DHT22;65970;50.476;4.840;2024-03-07T03:17:00;8.10;34.60
77039;DHT22;65970;50.476;4.840;2024-03-07T03:22:00;8.00;34.20
77039;DHT22;65970;50.476;4.840;2024-03-07T03:27:01;8.00;34.30
77039;DHT22;65970;50.476;4.840;2024-03-07T03:32:01;7.90;34.00
77039;DHT22;65970;50.476;4.840;2024-03-07T03:37:02;7.90;34.40
77039;DHT22;65970;50.476;4.840;2024-03-07T03:42:02;7.90;34.60
77039;DHT22;65970;50.476;4.840;2024-03-07T03:47:03;7.80;34.10
77039;DHT22;65970;50.476;4.840;2024-03-07T03:52:04;7.80;34.00
77039;DHT22;65970;50.476;4.840;2024-03-07T03:57:04;7.80;34.50
77039;DHT22;65970;50.476;4.840;2024-03-07T04:02:05;7.70;34.70
77039;DHT22;65970;50.476;4.840;2024-03-07T04:07:06;7.70;34.40
77039;DHT22;65970;50.476;4.840;2024-03-07T04:12:06;7.70;34.60
77039;DHT22;65970;50.476;4.840;2024-03-07T04:17:08;7.70;35.00
77039;DHT22;65970;50.476;4.840;2024-03-07T04:22:09;7.60;34.30
77039;DHT22;65970;50.476;4.840;2024-03-07T04:27:09;7.60;34.80
77039;DHT22;65970;50.476;4.840;2024-03-07T04:32:10;7.60;34.70
77039;DHT22;65970;50.476;4.840;2024-03-07T04:37:10;7.50;34.60
77039;DHT22;65970;50.476;4.840;2024-03-07T04:42:11;7.50;34.60
77039;DHT22;65970;50.476;4.840;2024-03-07T04:47:12;7.40;34.60
77039;DHT22;65970;50.476;4.840;2024-03-07T04:52:12;7.40;34.50
77039;DHT22;65970;50.476;4.840;2024-03-07T04:57:13;7.40;35.00
77039;DHT22;65970;50.476;4.840;2024-03-07T05:02:13;7.40;34.50
77039;DHT22;65970;50.476;4.840;2024-03-07T05:07:14;7.30;34.30
77039;DHT22;65970;50.476;4.840;2024-03-07T05:12:14;7.30;34.10
77039;DHT22;65970;50.476;4.840;2024-03-07T05:17:15;7.30;34.60
77039;DHT22;65970;50.476;4.840;2024-03-07T05:22:16;7.30;34.40
77039;DHT22;65970;50.476;4.840;2024-03-07T05:27:16;7.20;34.40
77039;DHT22;65970;50.476;4.840;2024-03-07T05:32:20;7.20;35.10
77039;DHT22;65970;50.476;4.840;2024-03-07T05:37:21;7.20;35.10
77039;DHT22;65970;50.476;4.840;2024-03-07T05:42:22;7.20;35.20
77039;DHT22;65970;50.476;4.840;2024-03-07T05:47:22;7.10;34.50
77039;DHT22;65970;50.476;4.840;2024-03-07T05:52:23;7.10;34.70
77039;DHT22;65970;50.476;4.840;2024-03-07T05:57:23;7.10;34.50
77039;DHT22;65970;50.476;4.840;2024-03-07T06:02:24;7.00;34.40
77039;DHT22;65970;50.476;4.840;2024-03-07T06:07:25;7.00;34.20
77039;DHT22;65970;50.476;4.840;2024-03-07T06:12:25;6.90;34.70
77039;DHT22;65970;50.476;4.840;2024-03-07T06:17:26;6.90;34.70
77039;DHT22;65970;50.476;4.840;2024-03-07T06:22:26;6.90;34.80
77039;DHT22;65970;50.476;4.840;2024-03-07T06:27:27;6.90;34.90
77039;DHT22;65970;50.476;4.840;2024-03-07T06:32:27;6.80;33.90
77039;DHT22;65970;50.476;4.840;2024-03-07T06:37:28;6.80;34.60
77039;DHT22;65970;50.476;4.840;2024-03-07T06:42:28;6.70;35.00
77039;DHT22;65970;50.476;4.840;2024-03-07T06:47:29;6.70;35.00
77039;DHT22;65970;50.476;4.840;2024-03-07T06:52:29;6.70;35.30
77039;DHT22;65970;50.476;4.840;2024-03-07T06:57:30;6.70;35.70
77039;DHT22;65970;50.476;4.840;2024-03-07T07:02:30;6.60;35.60
77039;DHT22;65970;50.476;4.840;2024-03-07T07:07:31;6.60;35.80
77039;DHT22;65970;50.476;4.840;2024-03-07T07:12:31;6.60;35.40
77039;DHT22;65970;50.476;4.840;2024-03-07T07:17:32;6.60;34.70
77039;DHT22;65970;50.476;4.840;2024-03-07T07:22:32;6.50;36.00
77039;DHT22;65970;50.476;4.840;2024-03-07T07:27:33;6.50;36.20
77039;DHT22;65970;50.476;4.840;2024-03-07T07:32:33;6.50;36.10
77039;DHT22;65970;50.476;4.840;2024-03-07T07:37:34;6.50;36.30
77039;DHT22;65970;50.476;4.840;2024-03-07T07:42:38;6.50;36.30
77039;DHT22;65970;50.476;4.840;2024-03-07T07:47:43;6.50;36.70
77039;DHT22;65970;50.476;4.840;2024-03-07T07:57:53;6.50;37.00
77039;DHT22;65970;50.476;4.840;2024-03-07T08:02:56;6.50;37.30
77039;DHT22;65970;50.476;4.840;2024-03-07T08:07:59;6.50;37.70
77039;DHT22;65970;50.476;4.840;2024-03-07T08:13:01;6.50;38.00
77039;DHT22;65970;50.476;4.840;2024-03-07T08:18:01;6.50;38.40
77039;DHT22;65970;50.476;4.840;2024-03-07T08:23:02;6.40;38.50
77039;DHT22;65970;50.476;4.840;2024-03-07T08:28:03;6.50;38.70
77039;DHT22;65970;50.476;4.840;2024-03-07T08:33:04;6.50;38.90
77039;DHT22;65970;50.476;4.840;2024-03-07T08:38:04;6.50;38.70
77039;DHT22;65970;50.476;4.840;2024-03-07T08:43:05;6.50;38.60
77039;DHT22;65970;50.476;4.840;2024-03-07T08:48:06;6.50;38.60
77039;DHT22;65970;50.476;4.840;2024-03-07T08:53:06;6.60;38.40
77039;DHT22;65970;50.476;4.840;2024-03-07T08:58:07;6.60;38.50
77039;DHT22;65970;50.476;4.840;2024-03-07T09:03:07;6.70;38.70
77039;DHT22;65970;50.476;4.840;2024-03-07T09:08:08;6.70;38.70
77039;DHT22;65970;50.476;4.840;2024-03-07T09:13:08;6.80;38.70
77039;DHT22;65970;50.476;4.840;2024-03-07T09:18:09;6.80;38.80
77039;DHT22;65970;50.476;4.840;2024-03-07T09:23:09;6.90;38.90
77039;DHT22;65970;50.476;4.840;2024-03-07T09:28:10;7.00;39.00
77039;DHT22;65970;50.476;4.840;2024-03-07T09:33:11;7.10;39.10
77039;DHT22;65970;50.476;4.840;2024-03-07T09:38:11;7.10;39.10
77039;DHT22;65970;50.476;4.840;2024-03-07T09:43:12;7.20;39.10
77039;DHT22;65970;50.476;4.840;2024-03-07T09:48:13;7.30;39.20
77039;DHT22;65970;50.476;4.840;2024-03-07T09:53:15;7.40;39.20
77039;DHT22;65970;50.476;4.840;2024-03-07T09:58:18;7.50;39.20
77039;DHT22;65970;50.476;4.840;2024-03-07T10:03:21;7.60;38.50
77039;DHT22;65970;50.476;4.840;2024-03-07T10:08:22;7.60;39.60
77039;DHT22;65970;50.476;4.840;2024-03-07T10:13:23;7.70;39.70
77039;DHT22;65970;50.476;4.840;2024-03-07T10:18:24;7.80;39.90
77039;DHT22;65970;50.476;4.840;2024-03-07T10:23:24;7.90;39.80
77039;DHT22;65970;50.476;4.840;2024-03-07T10:28:27;8.00;40.00
77039;DHT22;65970;50.476;4.840;2024-03-07T10:33:27;8.10;40.10
77039;DHT22;65970;50.476;4.840;2024-03-07T10:38:28;8.20;40.00
77039;DHT22;65970;50.476;4.840;2024-03-07T10:43:29;8.30;39.90
77039;DHT22;65970;50.476;4.840;2024-03-07T10:48:33;8.40;39.90
77039;DHT22;65970;50.476;4.840;2024-03-07T11:03:59;8.60;39.80
77039;DHT22;65970;50.476;4.840;2024-03-07T11:09:03;8.70;40.00
77039;DHT22;65970;50.476;4.840;2024-03-07T11:14:04;8.80;39.90
77039;DHT22;65970;50.476;4.840;2024-03-07T11:19:24;8.80;39.90
77039;DHT22;65970;50.476;4.840;2024-03-07T11:24:30;8.80;39.90
77039;DHT22;65970;50.476;4.840;2024-03-07T11:29:40;8.80;40.20
77039;DHT22;65970;50.476;4.840;2024-03-07T11:34:45;8.90;40.50
77039;DHT22;65970;50.476;4.840;2024-03-07T11:39:47;8.90;40.80
77039;DHT22;65970;50.476;4.840;2024-03-07T11:44:49;9.00;41.00
77039;DHT22;65970;50.476;4.840;2024-03-07T11:49:52;9.00;41.00
77039;DHT22;65970;50.476;4.840;2024-03-07T11:54:53;9.10;41.30
77039;DHT22;65970;50.476;4.840;2024-03-07T11:59:54;9.20;41.50
77039;DHT22;65970;50.476;4.840;2024-03-07T12:04:55;9.20;41.60
77039;DHT22;65970;50.476;4.840;2024-03-07T12:09:55;9.30;41.80
77039;DHT22;65970;50.476;4.840;2024-03-07T12:14:56;9.40;40.40
77039;DHT22;65970;50.476;4.840;2024-03-07T12:19:56;9.50;41.90
77039;DHT22;65970;50.476;4.840;2024-03-07T12:25:04;9.60;42.00
77039;DHT22;65970;50.476;4.840;2024-03-07T12:30:15;9.60;41.90
77039;DHT22;65970;50.476;4.840;2024-03-07T12:35:16;9.70;42.00
77039;DHT22;65970;50.476;4.840;2024-03-07T12:40:16;9.80;42.10
77039;DHT22;65970;50.476;4.840;2024-03-07T12:45:17;9.80;42.30
77039;DHT22;65970;50.476;4.840;2024-03-07T12:50:21;9.90;42.30
77039;DHT22;65970;50.476;4.840;2024-03-07T12:55:21;10.00;42.40
77039;DHT22;65970;50.476;4.840;2024-03-07T13:00:22;10.10;42.50
77039;DHT22;65970;50.476;4.840;2024-03-07T13:05:22;10.10;42.80
77039;DHT22;65970;50.476;4.840;2024-03-07T13:10:23;10.10;42.90
77039;DHT22;65970;50.476;4.840;2024-03-07T13:15:23;10.20;42.80
77039;DHT22;65970;50.476;4.840;2024-03-07T13:20:24;10.30;43.10
77039;DHT22;65970;50.476;4.840;2024-03-07T13:25:26;10.30;43.30
77039;DHT22;65970;50.476;4.840;2024-03-07T13:30:27;10.40;43.10
77039;DHT22;65970;50.476;4.840;2024-03-07T13:35:28;10.50;43.30
77039;DHT22;65970;50.476;4.840;2024-03-07T13:40:29;10.50;43.50
77039;DHT22;65970;50.476;4.840;2024-03-07T13:45:31;10.50;43.30
77039;DHT22;65970;50.476;4.840;2024-03-07T13:50:33;10.60;43.50
77039;DHT22;65970;50.476;4.840;2024-03-07T13:55:45;10.60;43.70
77039;DHT22;65970;50.476;4.840;2024-03-07T14:00:54;10.60;43.90
77039;DHT22;65970;50.476;4.840;2024-03-07T14:06:03;10.70;43.70
77039;DHT22;65970;50.476;4.840;2024-03-07T14:21:53;10.80;43.50
77039;DHT22;65970;50.476;4.840;2024-03-07T14:32:17;10.90;43.50
77039;DHT22;65970;50.476;4.840;2024-03-07T14:37:27;10.90;43.70
77039;DHT22;65970;50.476;4.840;2024-03-07T14:42:28;10.90;43.80
77039;DHT22;65970;50.476;4.840;2024-03-07T14:47:29;10.90;43.80
77039;DHT22;65970;50.476;4.840;2024-03-07T14:52:30;11.00;43.70
77039;DHT22;65970;50.476;4.840;2024-03-07T14:57:30;11.00;43.80
77039;DHT22;65970;50.476;4.840;2024-03-07T15:02:31;11.00;43.90
77039;DHT22;65970;50.476;4.840;2024-03-07T15:07:31;11.10;44.10
77039;DHT22;65970;50.476;4.840;2024-03-07T15:12:32;11.10;44.20
77039;DHT22;65970;50.476;4.840;2024-03-07T15:17:32;11.20;44.10
77039;DHT22;65970;50.476;4.840;2024-03-07T15:22:33;11.10;44.30
77039;DHT22;65970;50.476;4.840;2024-03-07T15:27:33;11.20;43.90
77039;DHT22;65970;50.476;4.840;2024-03-07T15:32:34;11.20;43.90
77039;DHT22;65970;50.476;4.840;2024-03-07T15:37:37;11.20;44.00
77039;DHT22;65970;50.476;4.840;2024-03-07T15:42:45;11.20;44.10
77039;DHT22;65970;50.476;4.840;2024-03-07T15:47:46;11.20;43.70
77039;DHT22;65970;50.476;4.840;2024-03-07T15:52:50;11.20;43.90
77039;DHT22;65970;50.476;4.840;2024-03-07T15:57:52;11.20;43.70
77039;DHT22;65970;50.476;4.840;2024-03-07T16:02:54;11.20;43.60
77039;DHT22;65970;50.476;4.840;2024-03-07T16:07:55;11.20;43.00
77039;DHT22;65970;50.476;4.840;2024-03-07T16:12:59;11.20;44.00
77039;DHT22;65970;50.476;4.840;2024-03-07T16:17:59;11.20;44.00
77039;DHT22;65970;50.476;4.840;2024-03-07T16:23:00;11.20;43.50
77039;DHT22;65970;50.476;4.840;2024-03-07T16:28:01;11.20;42.20
77039;DHT22;65970;50.476;4.840;2024-03-07T16:33:02;11.20;42.80
77039;DHT22;65970;50.476;4.840;2024-03-07T16:38:02;11.20;42.90
77039;DHT22;65970;50.476;4.840;2024-03-07T16:43:03;11.20;41.10
77039;DHT22;65970;50.476;4.840;2024-03-07T16:48:04;11.20;42.60
77039;DHT22;65970;50.476;4.840;2024-03-07T16:53:05;11.20;40.30
77039;DHT22;65970;50.476;4.840;2024-03-07T16:58:06;11.20;37.30
77039;DHT22;65970;50.476;4.840;2024-03-07T17:03:07;11.20;36.00
77039;DHT22;65970;50.476;4.840;2024-03-07T17:08:09;11.10;35.80
77039;DHT22;65970;50.476;4.840;2024-03-07T17:13:10;11.10;37.20
77039;DHT22;65970;50.476;4.840;2024-03-07T17:18:10;11.10;37.70
77039;DHT22;65970;50.476;4.840;2024-03-07T17:23:11;11.10;37.50
77039;DHT22;65970;50.476;4.840;2024-03-07T17:28:12;11.10;37.60
77039;DHT22;65970;50.476;4.840;2024-03-07T17:33:12;11.10;38.90
77039;DHT22;65970;50.476;4.840;2024-03-07T17:38:13;11.00;37.50
77039;DHT22;65970;50.476;4.840;2024-03-07T17:43:13;11.00;38.10
77039;DHT22;65970;50.476;4.840;2024-03-07T17:48:14;11.00;37.60
77039;DHT22;65970;50.476;4.840;2024-03-07T17:53:14;11.00;38.20
77039;DHT22;65970;50.476;4.840;2024-03-07T17:58:15;10.90;37.00
77039;DHT22;65970;50.476;4.840;2024-03-07T18:03:15;10.90;37.10
77039;DHT22;65970;50.476;4.840;2024-03-07T18:08:16;10.90;36.30
77039;DHT22;65970;50.476;4.840;2024-03-07T18:13:17;10.90;37.10
77039;DHT22;65970;50.476;4.840;2024-03-07T18:18:17;10.90;36.70
77039;DHT22;65970;50.476;4.840;2024-03-07T18:23:18;10.80;36.50
77039;DHT22;65970;50.476;4.840;2024-03-07T18:28:18;10.80;35.60
77039;DHT22;65970;50.476;4.840;2024-03-07T18:33:19;10.70;35.90
77039;DHT22;65970;50.476;4.840;2024-03-07T18:38:19;10.70;35.60
77039;DHT22;65970;50.476;4.840;2024-03-07T18:43:20;10.70;34.20
77039;DHT22;65970;50.476;4.840;2024-03-07T18:48:20;10.70;35.00
77039;DHT22;65970;50.476;4.840;2024-03-07T18:53:21;10.60;34.10
77039;DHT22;65970;50.476;4.840;2024-03-07T18:58:21;10.60;33.80
77039;DHT22;65970;50.476;4.840;2024-03-07T19:03:22;10.50;33.30
77039;DHT22;65970;50.476;4.840;2024-03-07T19:08:23;10.50;33.30
77039;DHT22;65970;50.476;4.840;2024-03-07T19:13:24;10.50;32.50
77039;DHT22;65970;50.476;4.840;2024-03-07T19:18:25;10.40;33.10
77039;DHT22;65970;50.476;4.840;2024-03-07T19:23:25;10.40;32.20
77039;DHT22;65970;50.476;4.840;2024-03-07T19:28:26;10.40;31.60
77039;DHT22;65970;50.476;4.840;2024-03-07T19:33:26;10.30;30.60
77039;DHT22;65970;50.476;4.840;2024-03-07T19:38:27;10.30;31.10
77039;DHT22;65970;50.476;4.840;2024-03-07T19:43:27;10.30;30.50
77039;DHT22;65970;50.476;4.840;2024-03-07T19:48:28;10.20;29.70
77039;DHT22;65970;50.476;4.840;2024-03-07T19:53:29;10.20;29.60
77039;DHT22;65970;50.476;4.840;2024-03-07T19:58:29;10.10;30.20
77039;DHT22;65970;50.476;4.840;2024-03-07T20:03:30;10.10;30.70
77039;DHT22;65970;50.476;4.840;2024-03-07T20:08:30;10.10;31.00
77039;DHT22;65970;50.476;4.840;2024-03-07T20:13:31;10.00;30.40
77039;DHT22;65970;50.476;4.840;2024-03-07T20:18:31;10.00;30.60
77039;DHT22;65970;50.476;4.840;2024-03-07T20:23:32;10.00;30.10
77039;DHT22;65970;50.476;4.840;2024-03-07T20:28:33;10.00;29.80
77039;DHT22;65970;50.476;4.840;2024-03-07T20:33:33;9.90;29.80
77039;DHT22;65970;50.476;4.840;2024-03-07T20:38:34;9.90;29.60
77039;DHT22;65970;50.476;4.840;2024-03-07T20:43:36;9.80;29.50
77039;DHT22;65970;50.476;4.840;2024-03-07T20:48:36;9.80;29.60
77039;DHT22;65970;50.476;4.840;2024-03-07T20:53:37;9.80;29.80
77039;DHT22;65970;50.476;4.840;2024-03-07T20:58:38;9.70;29.50
77039;DHT22;65970;50.476;4.840;2024-03-07T21:03:38;9.70;29.80
77039;DHT22;65970;50.476;4.840;2024-03-07T21:08:39;9.60;29.50
77039;DHT22;65970;50.476;4.840;2024-03-07T21:13:39;9.60;29.70
77039;DHT22;65970;50.476;4.840;2024-03-07T21:18:40;9.60;29.30
77039;DHT22;65970;50.476;4.840;2024-03-07T21:23:40;9.50;29.20
77039;DHT22;65970;50.476;4.840;2024-03-07T21:28:41;9.50;29.50
77039;DHT22;65970;50.476;4.840;2024-03-07T21:33:42;9.40;29.20
77039;DHT22;65970;50.476;4.840;2024-03-07T21:38:43;9.40;28.90
77039;DHT22;65970;50.476;4.840;2024-03-07T21:43:43;9.40;29.60
77039;DHT22;65970;50.476;4.840;2024-03-07T21:48:44;9.30;28.80
77039;DHT22;65970;50.476;4.840;2024-03-07T21:53:44;9.20;28.90
77039;DHT22;65970;50.476;4.840;2024-03-07T21:58:45;9.20;28.70
77039;DHT22;65970;50.476;4.840;2024-03-07T22:03:46;9.20;29.00
77039;DHT22;65970;50.476;4.840;2024-03-07T22:08:46;9.10;29.00
77039;DHT22;65970;50.476;4.840;2024-03-07T22:13:47;9.10;29.50
77039;DHT22;65970;50.476;4.840;2024-03-07T22:18:47;9.00;29.30
77039;DHT22;65970;50.476;4.840;2024-03-07T22:23:48;9.00;29.60
77039;DHT22;65970;50.476;4.840;2024-03-07T22:28:48;9.00;29.60
77039;DHT22;65970;50.476;4.840;2024-03-07T22:33:49;8.90;29.60
77039;DHT22;65970;50.476;4.840;2024-03-07T22:38:49;8.90;29.80
77039;DHT22;65970;50.476;4.840;2024-03-07T22:43:50;8.80;30.00
77039;DHT22;65970;50.476;4.840;2024-03-07T22:48:50;8.80;30.10
77039;DHT22;65970;50.476;4.840;2024-03-07T22:53:51;8.80;30.50
77039;DHT22;65970;50.476;4.840;2024-03-07T22:58:52;8.70;30.40
77039;DHT22;65970;50.476;4.840;2024-03-07T23:03:52;8.70;30.00
77039;DHT22;65970;50.476;4.840;2024-03-07T23:08:53;8.70;29.80
77039;DHT22;65970;50.476;4.840;2024-03-07T23:13:54;8.60;29.80
77039;DHT22;65970;50.476;4.840;2024-03-07T23:18:55;8.60;29.80
77039;DHT22;65970;50.476;4.840;2024-03-07T23:23:55;8.50;30.00
77039;DHT22;65970;50.476;4.840;2024-03-07T23:28:56;8.50;29.80
77039;DHT22;65970;50.476;4.840;2024-03-07T23:33:57;8.40;30.30
77039;DHT22;65970;50.476;4.840;2024-03-07T23:38:57;8.40;30.20
77039;DHT22;65970;50.476;4.840;2024-03-07T23:43:58;8.40;29.90
77039;DHT22;65970;50.476;4.840;2024-03-07T23:48:58;8.30;30.30
77039;DHT22;65970;50.476;4.840;2024-03-07T23:53:59;8.30;29.50
77039;DHT22;65970;50.476;4.840;2024-03-07T23:58:59;8.30;30.90
